createdAt,value
2019-05-09T00:00:20.280Z,19.9
2019-05-09T00:01:10.607Z,19.9
2019-05-09T00:02:00.677Z,19.9
2019-05-09T00:02:50.747Z,20
2019-05-09T00:03:40.789Z,20
2019-05-09T00:04:30.578Z,19.9
2019-05-09T00:05:25.735Z,20
2019-05-09T00:06:12.927Z,20
2019-05-09T00:07:01.034Z,20
2019-05-09T00:07:52.988Z,20
2019-05-09T00:08:41.157Z,20
2019-05-09T00:09:33.347Z,19.9
2019-05-09T00:10:35.051Z,20
2019-05-09T00:12:03.450Z,20
2019-05-09T00:12:50.919Z,20
2019-05-09T00:13:43.937Z,20
2019-05-09T00:14:31.305Z,20
2019-05-09T00:15:21.641Z,20
2019-05-09T00:16:11.164Z,20
2019-05-09T00:17:04.125Z,20
2019-05-09T00:17:54.010Z,20
2019-05-09T00:18:44.496Z,20
2019-05-09T00:19:34.073Z,20
2019-05-09T00:20:24.341Z,20
2019-05-09T00:21:14.399Z,20
2019-05-09T00:22:04.106Z,20
2019-05-09T00:22:54.379Z,20
2019-05-09T00:23:44.703Z,20
2019-05-09T00:24:34.308Z,20
2019-05-09T00:25:24.566Z,20
2019-05-09T00:26:14.476Z,20
2019-05-09T00:27:04.463Z,20
2019-05-09T00:27:54.641Z,20
2019-05-09T00:28:45.072Z,20
2019-05-09T00:29:34.218Z,20
2019-05-09T00:30:23.628Z,20
2019-05-09T00:31:14.680Z,20
2019-05-09T00:32:04.578Z,20.1
2019-05-09T00:32:54.440Z,20
2019-05-09T00:33:48.577Z,20.1
2019-05-09T00:34:34.836Z,20.1
2019-05-09T00:35:24.423Z,20
2019-05-09T00:36:15.082Z,20
2019-05-09T00:37:03.880Z,20.1
2019-05-09T00:37:54.648Z,20.1
2019-05-09T00:38:44.505Z,20.1
2019-05-09T00:39:35.145Z,20.1
2019-05-09T00:40:24.883Z,20
2019-05-09T00:41:15.092Z,20.1
2019-05-09T00:42:05.427Z,20
2019-05-09T00:42:54.344Z,20.1
2019-05-09T00:43:44.647Z,20.1
2019-05-09T00:44:34.623Z,20.1
2019-05-09T00:45:24.897Z,20.1
2019-05-09T00:46:14.897Z,20.1
2019-05-09T00:47:04.979Z,20.1
2019-05-09T00:47:54.947Z,20.1
2019-05-09T00:48:44.920Z,20.1
2019-05-09T00:49:34.917Z,20.1
2019-05-09T00:50:24.327Z,20.1
2019-05-09T00:51:15.100Z,20.1
2019-05-09T00:52:04.410Z,20.1
2019-05-09T00:52:54.834Z,20.1
2019-05-09T00:53:45.449Z,20.1
2019-05-09T00:54:34.869Z,20.1
2019-05-09T00:55:24.984Z,20.1
2019-05-09T00:56:14.609Z,20.1
2019-05-09T00:57:04.677Z,20.1
2019-05-09T00:57:54.739Z,20.1
2019-05-09T00:58:45.167Z,20.1
2019-05-09T00:59:34.849Z,20.1
2019-05-09T01:00:25.359Z,20.1
2019-05-09T01:01:14.970Z,20.1
2019-05-09T01:02:04.933Z,20.1
2019-05-09T01:02:55.350Z,20.1
2019-05-09T01:03:45.151Z,20.1
2019-05-09T01:04:35.223Z,20.1
2019-05-09T01:05:25.268Z,20.1
2019-05-09T01:06:15.071Z,20.1
2019-05-09T01:07:05.394Z,20.1
2019-05-09T01:07:54.911Z,20.1
2019-05-09T01:08:45.526Z,20.1
2019-05-09T01:09:35.568Z,20.1
2019-05-09T01:10:25.641Z,20.1
2019-05-09T01:11:16.661Z,20.1
2019-05-09T01:12:05.762Z,20.1
2019-05-09T01:12:55.543Z,20.1
2019-05-09T01:13:45.605Z,20.1
2019-05-09T01:14:35.956Z,20.1
2019-05-09T01:15:25.987Z,20.1
2019-05-09T01:16:16.053Z,20.1
2019-05-09T01:17:06.133Z,20.1
2019-05-09T01:17:56.218Z,20.1
2019-05-09T01:18:46.016Z,20.1
2019-05-09T01:19:36.300Z,20.1
2019-05-09T01:20:26.088Z,20.1
2019-05-09T01:21:16.153Z,20.1
2019-05-09T01:22:06.490Z,20.1
2019-05-09T01:22:56.273Z,20.1
2019-05-09T01:23:46.330Z,20.1
2019-05-09T01:24:36.665Z,20.1
2019-05-09T01:25:26.455Z,20.1
2019-05-09T01:26:16.512Z,20.1
2019-05-09T01:27:06.839Z,20.1
2019-05-09T01:27:56.642Z,20.1
2019-05-09T01:28:46.700Z,20.1
2019-05-09T01:29:36.751Z,20.1
2019-05-09T01:30:26.812Z,20.1
2019-05-09T01:31:17.157Z,20.1
2019-05-09T01:32:07.212Z,20.1
2019-05-09T01:32:57.277Z,20.1
2019-05-09T01:33:47.365Z,20.1
2019-05-09T01:34:37.389Z,20.1
2019-05-09T01:35:27.179Z,20.1
2019-05-09T01:36:17.232Z,20.2
2019-05-09T01:37:07.589Z,20.2
2019-05-09T01:37:57.349Z,20.1
2019-05-09T01:38:47.702Z,20.1
2019-05-09T01:39:37.490Z,20.1
2019-05-09T01:40:27.810Z,20.1
2019-05-09T01:41:34.716Z,20.1
2019-05-09T01:42:07.941Z,20.2
2019-05-09T01:42:57.992Z,20.2
2019-05-09T01:43:48.052Z,20.2
2019-05-09T01:44:38.102Z,20.1
2019-05-09T01:45:27.910Z,20.2
2019-05-09T01:46:17.965Z,20.2
2019-05-09T01:47:08.298Z,20.2
2019-05-09T01:47:58.359Z,20.2
2019-05-09T01:48:48.410Z,20.2
2019-05-09T01:49:38.509Z,20.2
2019-05-09T01:50:28.542Z,20.2
2019-05-09T01:51:18.324Z,20.2
2019-05-09T01:52:08.389Z,20.2
2019-05-09T01:52:58.433Z,20.2
2019-05-09T01:53:48.520Z,20.2
2019-05-09T01:54:38.835Z,20.2
2019-05-09T01:55:28.885Z,20.2
2019-05-09T01:56:18.683Z,20.2
2019-05-09T01:57:09.013Z,20.2
2019-05-09T01:57:58.834Z,20.2
2019-05-09T01:58:49.141Z,20.2
2019-05-09T01:59:39.205Z,20.2
2019-05-09T02:00:29.253Z,20.2
2019-05-09T02:01:19.321Z,20.2
2019-05-09T02:02:10.060Z,20.2
2019-05-09T02:02:59.436Z,20.2
2019-05-09T02:03:49.239Z,20.2
2019-05-09T02:04:39.570Z,20.2
2019-05-09T02:05:29.373Z,20.2
2019-05-09T02:06:19.130Z,20.2
2019-05-09T02:07:09.739Z,20.2
2019-05-09T02:07:59.518Z,20.3
2019-05-09T02:08:49.872Z,20.2
2019-05-09T02:09:39.375Z,20.2
2019-05-09T02:10:29.977Z,20.2
2019-05-09T02:11:19.770Z,20.2
2019-05-09T02:13:00.167Z,20.2
2019-05-09T02:13:49.680Z,20.2
2019-05-09T02:14:40.290Z,20.3
2019-05-09T02:15:30.065Z,20.3
2019-05-09T02:16:20.417Z,20.2
2019-05-09T02:17:10.193Z,20.2
2019-05-09T02:18:05.973Z,20.2
2019-05-09T02:18:50.592Z,20.2
2019-05-09T02:19:40.639Z,20.2
2019-05-09T02:20:30.439Z,20.3
2019-05-09T02:21:20.497Z,20.3
2019-05-09T02:22:12.887Z,20.3
2019-05-09T02:23:00.891Z,20.3
2019-05-09T02:23:50.952Z,20.2
2019-05-09T02:24:41.020Z,20.3
2019-05-09T02:25:32.921Z,20.3
2019-05-09T02:26:21.127Z,20.3
2019-05-09T02:27:13.053Z,20.3
2019-05-09T02:28:03.267Z,20.3
2019-05-09T02:28:53.547Z,20.3
2019-05-09T02:29:41.369Z,20.3
2019-05-09T02:30:31.450Z,20.3
2019-05-09T02:31:24.907Z,20.3
2019-05-09T02:32:14.075Z,20.3
2019-05-09T02:33:01.357Z,20.3
2019-05-09T02:33:54.994Z,20.3
2019-05-09T02:34:44.506Z,20.3
2019-05-09T02:35:57.176Z,20.3
2019-05-09T02:37:11.929Z,20.3
2019-05-09T02:38:01.443Z,20.3
2019-05-09T02:38:52.041Z,20.3
2019-05-09T02:39:41.857Z,20.3
2019-05-09T02:40:32.277Z,20.3
2019-05-09T02:41:22.244Z,20.3
2019-05-09T02:42:15.108Z,20.3
2019-05-09T02:43:02.362Z,20.3
2019-05-09T02:43:52.416Z,20.3
2019-05-09T02:44:42.196Z,20.3
2019-05-09T02:45:32.257Z,20.3
2019-05-09T02:46:22.602Z,20.3
2019-05-09T02:47:12.669Z,20.3
2019-05-09T02:48:02.701Z,20.3
2019-05-09T02:48:52.808Z,20.3
2019-05-09T02:49:42.594Z,20.3
2019-05-09T02:50:32.897Z,20.3
2019-05-09T02:51:22.948Z,20.3
2019-05-09T02:52:13.011Z,20.3
2019-05-09T02:53:02.793Z,20.3
2019-05-09T02:53:53.116Z,20.3
2019-05-09T02:54:43.191Z,20.3
2019-05-09T02:55:33.246Z,20.3
2019-05-09T02:56:23.046Z,20.3
2019-05-09T02:57:13.105Z,20.3
2019-05-09T02:58:03.421Z,20.3
2019-05-09T02:58:53.260Z,20.3
2019-05-09T02:59:43.296Z,20.3
2019-05-09T03:00:33.603Z,20.3
2019-05-09T03:01:23.397Z,20.3
2019-05-09T03:02:13.740Z,20.3
2019-05-09T03:03:03.792Z,20.3
2019-05-09T03:06:34.510Z,20.3
2019-05-09T03:07:24.320Z,20.3
2019-05-09T03:08:14.352Z,20.3
2019-05-09T03:09:04.689Z,20.3
2019-05-09T03:09:54.743Z,20.3
2019-05-09T03:10:44.833Z,20.3
2019-05-09T03:11:34.873Z,20.3
2019-05-09T03:12:39.799Z,20.3
2019-05-09T03:13:14.998Z,20.3
2019-05-09T03:14:05.051Z,20.3
2019-05-09T03:14:55.102Z,20.3
2019-05-09T03:15:44.944Z,20.3
2019-05-09T03:16:35.232Z,20.3
2019-05-09T03:17:27.445Z,20.3
2019-05-09T03:18:17.684Z,20.3
2019-05-09T03:19:08.597Z,20.3
2019-05-09T03:19:55.207Z,20.3
2019-05-09T03:20:45.517Z,20.3
2019-05-09T03:21:39.358Z,20.3
2019-05-09T03:22:25.639Z,20.3
2019-05-09T03:23:18.780Z,20.3
2019-05-09T03:24:05.528Z,20.3
2019-05-09T03:24:59.061Z,20.3
2019-05-09T03:25:49.185Z,20.3
2019-05-09T03:26:38.826Z,20.3
2019-05-09T03:27:29.178Z,20.3
2019-05-09T03:28:19.433Z,20.3
2019-05-09T03:29:09.065Z,20.4
2019-05-09T03:29:59.429Z,20.3
2019-05-09T03:30:49.690Z,20.4
2019-05-09T03:31:40.411Z,20.3
2019-05-09T03:32:30.125Z,20.3
2019-05-09T03:33:19.656Z,20.3
2019-05-09T03:34:10.376Z,20.3
2019-05-09T03:34:58.723Z,20.4
2019-05-09T03:35:48.652Z,20.3
2019-05-09T03:36:38.323Z,20.3
2019-05-09T03:37:28.803Z,20.3
2019-05-09T03:38:18.926Z,20.4
2019-05-09T03:39:09.132Z,20.3
2019-05-09T03:39:59.013Z,20.4
2019-05-09T03:40:48.472Z,20.4
2019-05-09T03:41:39.243Z,20.4
2019-05-09T03:42:44.345Z,20.4
2019-05-09T03:43:19.285Z,20.4
2019-05-09T03:44:08.078Z,20.4
2019-05-09T03:44:59.134Z,20.4
2019-05-09T03:45:49.110Z,20.4
2019-05-09T03:46:39.152Z,20.3
2019-05-09T03:47:28.645Z,20.4
2019-05-09T03:48:18.735Z,20.4
2019-05-09T03:49:08.382Z,20.4
2019-05-09T03:49:59.650Z,20.4
2019-05-09T03:50:49.735Z,20.4
2019-05-09T03:51:38.692Z,20.4
2019-05-09T03:52:28.982Z,20.4
2019-05-09T03:53:19.484Z,20.4
2019-05-09T03:54:09.116Z,20.4
2019-05-09T03:54:58.392Z,20.4
2019-05-09T03:55:48.545Z,20.4
2019-05-09T03:56:38.567Z,20.4
2019-05-09T03:57:29.374Z,20.4
2019-05-09T03:58:19.450Z,20.4
2019-05-09T03:59:09.103Z,20.4
2019-05-09T03:59:58.073Z,20.4
2019-05-09T04:00:48.736Z,20.4
2019-05-09T04:01:39.235Z,20.4
2019-05-09T04:02:29.181Z,20.4
2019-05-09T04:03:21.081Z,20.4
2019-05-09T04:04:09.816Z,20.4
2019-05-09T04:04:58.799Z,20.4
2019-05-09T04:06:03.516Z,20.4
2019-05-09T04:06:40.198Z,20.4
2019-05-09T04:07:30.915Z,20.4
2019-05-09T04:08:19.466Z,20.4
2019-05-09T04:09:09.014Z,20.4
2019-05-09T04:09:59.558Z,20.4
2019-05-09T04:10:51.148Z,20.4
2019-05-09T04:11:39.031Z,20.4
2019-05-09T04:12:29.146Z,20.4
2019-05-09T04:13:19.320Z,20.4
2019-05-09T04:14:09.171Z,20.4
2019-05-09T04:14:59.500Z,20.4
2019-05-09T04:15:49.499Z,20.4
2019-05-09T04:16:39.295Z,20.4
2019-05-09T04:17:29.613Z,20.4
2019-05-09T04:18:19.454Z,20.4
2019-05-09T04:19:09.751Z,20.4
2019-05-09T04:19:59.252Z,20.4
2019-05-09T04:20:49.590Z,20.4
2019-05-09T04:21:39.936Z,20.4
2019-05-09T04:22:29.971Z,20.5
2019-05-09T04:23:19.490Z,20.5
2019-05-09T04:24:10.100Z,20.4
2019-05-09T04:24:59.882Z,20.5
2019-05-09T04:25:50.213Z,20.4
2019-05-09T04:26:40.273Z,20.5
2019-05-09T04:27:30.898Z,20.5
2019-05-09T04:28:20.390Z,20.5
2019-05-09T04:29:10.450Z,20.5
2019-05-09T04:30:00.519Z,20.5
2019-05-09T04:30:50.037Z,20.6
2019-05-09T04:31:40.379Z,20.6
2019-05-09T04:32:30.702Z,20.6
2019-05-09T04:33:20.745Z,20.6
2019-05-09T04:34:11.009Z,20.6
2019-05-09T04:35:00.599Z,20.6
2019-05-09T04:35:50.935Z,20.6
2019-05-09T04:36:41.041Z,20.6
2019-05-09T04:37:32.197Z,20.7
2019-05-09T04:38:20.879Z,20.7
2019-05-09T04:39:23.753Z,20.8
2019-05-09T04:40:04.190Z,20.8
2019-05-09T04:40:51.308Z,20.8
2019-05-09T04:41:41.366Z,20.8
2019-05-09T04:42:42.450Z,20.8
2019-05-09T04:43:39.143Z,20.8
2019-05-09T04:44:21.995Z,20.8
2019-05-09T04:45:10.137Z,20.8
2019-05-09T04:45:54.382Z,20.8
2019-05-09T04:46:41.712Z,20.8
2019-05-09T04:47:43.507Z,20.8
2019-05-09T04:48:25.018Z,20.8
2019-05-09T04:49:11.897Z,20.8
2019-05-09T04:50:01.962Z,20.8
2019-05-09T04:50:52.009Z,20.8
2019-05-09T04:51:41.816Z,20.8
2019-05-09T04:52:31.864Z,20.8
2019-05-09T04:53:22.191Z,20.8
2019-05-09T04:54:12.255Z,20.8
2019-05-09T04:55:02.063Z,20.8
2019-05-09T04:55:52.379Z,20.8
2019-05-09T04:56:41.893Z,20.8
2019-05-09T04:57:32.503Z,20.8
2019-05-09T04:58:22.566Z,20.8
2019-05-09T04:59:12.338Z,20.8
2019-05-09T05:00:02.423Z,20.8
2019-05-09T05:00:52.741Z,20.8
2019-05-09T05:01:42.801Z,20.8
2019-05-09T05:02:32.578Z,20.8
2019-05-09T05:03:22.913Z,20.8
2019-05-09T05:04:12.703Z,20.8
2019-05-09T05:05:03.040Z,20.8
2019-05-09T05:05:53.103Z,20.8
2019-05-09T05:06:42.885Z,20.8
2019-05-09T05:07:32.948Z,20.8
2019-05-09T05:08:23.023Z,20.8
2019-05-09T05:09:13.340Z,20.8
2019-05-09T05:10:03.480Z,20.8
2019-05-09T05:10:53.450Z,20.8
2019-05-09T05:11:46.316Z,20.8
2019-05-09T05:12:33.585Z,20.8
2019-05-09T05:13:30.222Z,20.8
2019-05-09T05:14:13.695Z,20.8
2019-05-09T05:15:03.493Z,20.8
2019-05-09T05:15:53.819Z,20.8
2019-05-09T05:16:43.971Z,20.8
2019-05-09T05:17:33.932Z,20.8
2019-05-09T05:18:24.000Z,20.8
2019-05-09T05:19:14.049Z,20.8
2019-05-09T05:20:04.128Z,20.9
2019-05-09T05:20:54.177Z,20.9
2019-05-09T05:21:44.252Z,20.9
2019-05-09T05:22:34.294Z,20.9
2019-05-09T05:23:24.089Z,20.9
2019-05-09T05:24:14.411Z,20.9
2019-05-09T05:25:04.220Z,20.9
2019-05-09T05:25:54.269Z,20.9
2019-05-09T05:26:44.614Z,20.8
2019-05-09T05:27:34.385Z,20.9
2019-05-09T05:28:24.714Z,20.9
2019-05-09T05:29:14.789Z,20.9
2019-05-09T05:30:04.843Z,20.9
2019-05-09T05:30:54.895Z,20.9
2019-05-09T05:31:44.697Z,20.9
2019-05-09T05:32:34.750Z,20.9
2019-05-09T05:33:24.808Z,20.9
2019-05-09T05:34:14.873Z,20.9
2019-05-09T05:35:04.932Z,20.9
2019-05-09T05:35:56.836Z,20.9
2019-05-09T05:36:45.047Z,20.9
2019-05-09T05:37:35.381Z,20.9
2019-05-09T05:38:28.012Z,20.9
2019-05-09T05:39:17.637Z,20.9
2019-05-09T05:40:07.947Z,20.9
2019-05-09T05:40:58.350Z,20.9
2019-05-09T05:41:45.395Z,20.9
2019-05-09T05:42:38.539Z,20.9
2019-05-09T05:43:44.982Z,20.9
2019-05-09T05:45:07.986Z,20.9
2019-05-09T05:45:55.429Z,20.9
2019-05-09T05:46:51.497Z,20.9
2019-05-09T05:47:38.397Z,20.9
2019-05-09T05:48:28.419Z,20.9
2019-05-09T05:49:18.382Z,20.9
2019-05-09T05:50:08.852Z,20.9
2019-05-09T05:50:58.764Z,20.9
2019-05-09T05:51:48.600Z,21
2019-05-09T05:52:38.319Z,20.9
2019-05-09T05:53:28.734Z,20.9
2019-05-09T05:54:19.129Z,21
2019-05-09T05:55:08.630Z,20.9
2019-05-09T05:55:58.686Z,20.9
2019-05-09T05:56:48.199Z,21
2019-05-09T05:57:39.559Z,21
2019-05-09T05:58:29.239Z,21
2019-05-09T05:59:18.875Z,21
2019-05-09T06:00:08.927Z,21
2019-05-09T06:00:59.320Z,21
2019-05-09T06:01:48.610Z,21
2019-05-09T06:02:39.429Z,21
2019-05-09T06:04:48.951Z,21
2019-05-09T06:07:09.688Z,21
2019-05-09T06:07:59.475Z,21
2019-05-09T06:08:50.011Z,21
2019-05-09T06:09:39.861Z,21
2019-05-09T06:10:30.814Z,21
2019-05-09T06:11:19.700Z,21
2019-05-09T06:12:09.498Z,21
2019-05-09T06:13:00.038Z,21
2019-05-09T06:14:11.701Z,21
2019-05-09T06:14:40.211Z,21
2019-05-09T06:15:30.265Z,21
2019-05-09T06:16:37.521Z,21
2019-05-09T06:18:00.491Z,21
2019-05-09T06:18:50.520Z,21
2019-05-09T06:19:40.347Z,21
2019-05-09T06:20:30.648Z,21
2019-05-09T06:21:20.690Z,21
2019-05-09T06:22:10.761Z,21
2019-05-09T06:23:00.820Z,21
2019-05-09T06:23:50.920Z,21
2019-05-09T06:24:40.922Z,21
2019-05-09T06:25:31.641Z,21
2019-05-09T06:26:20.795Z,21.1
2019-05-09T06:27:11.653Z,21.1
2019-05-09T06:28:00.637Z,21
2019-05-09T06:28:51.271Z,21
2019-05-09T06:29:41.290Z,21
2019-05-09T06:30:31.403Z,21.1
2019-05-09T06:31:21.407Z,21.1
2019-05-09T06:32:10.916Z,21
2019-05-09T06:33:08.616Z,21.1
2019-05-09T06:33:54.568Z,21.1
2019-05-09T06:34:43.164Z,21
2019-05-09T06:35:31.435Z,21.1
2019-05-09T06:36:21.851Z,21.1
2019-05-09T06:38:01.894Z,21.1
2019-05-09T06:38:52.071Z,21
2019-05-09T06:39:41.469Z,21.1
2019-05-09T06:40:31.825Z,21.1
2019-05-09T06:41:22.139Z,21.1
2019-05-09T06:42:12.196Z,21.1
2019-05-09T06:43:02.269Z,21.1
2019-05-09T06:43:52.325Z,21.1
2019-05-09T06:45:32.429Z,21
2019-05-09T06:46:22.534Z,21.1
2019-05-09T06:47:12.551Z,21.1
2019-05-09T06:48:02.623Z,21.1
2019-05-09T06:48:52.769Z,21.1
2019-05-09T06:49:42.727Z,21
2019-05-09T06:50:32.806Z,21.1
2019-05-09T06:51:22.849Z,21
2019-05-09T06:52:12.918Z,21.1
2019-05-09T06:53:02.978Z,21.1
2019-05-09T06:53:52.756Z,21.1
2019-05-09T06:54:42.816Z,21.1
2019-05-09T06:55:32.891Z,21.1
2019-05-09T06:56:22.945Z,21
2019-05-09T06:57:13.280Z,21
2019-05-09T06:58:03.345Z,21.1
2019-05-09T06:58:53.115Z,21
2019-05-09T06:59:43.449Z,21.1
2019-05-09T07:00:33.256Z,21
2019-05-09T07:01:23.313Z,21.1
2019-05-09T07:02:13.365Z,21
2019-05-09T07:04:34.035Z,21.1
2019-05-09T07:05:24.103Z,21.1
2019-05-09T07:07:04.497Z,21.1
2019-05-09T07:07:54.562Z,21.1
2019-05-09T07:08:44.610Z,21
2019-05-09T07:09:34.400Z,21.1
2019-05-09T07:10:24.722Z,21.1
2019-05-09T07:11:14.826Z,21.1
2019-05-09T07:12:04.867Z,21.1
2019-05-09T07:12:54.907Z,21.1
2019-05-09T07:13:44.696Z,21.1
2019-05-09T07:14:42.293Z,21
2019-05-09T07:15:24.807Z,21.1
2019-05-09T07:16:15.164Z,21.1
2019-05-09T07:17:07.790Z,21
2019-05-09T07:17:57.293Z,21.1
2019-05-09T07:18:45.327Z,21.1
2019-05-09T10:05:34.195Z,20.9
2019-05-09T10:06:24.258Z,20.9
2019-05-09T10:07:14.310Z,20.9
2019-05-09T10:08:54.432Z,20.9
2019-05-09T10:09:44.488Z,20.9
2019-05-09T10:10:34.623Z,20.9
2019-05-09T10:11:24.330Z,20.9
2019-05-09T10:12:14.737Z,20.9
2019-05-09T10:13:54.789Z,20.9
2019-05-09T10:14:44.857Z,20.9
2019-05-09T10:15:34.909Z,20.9
2019-05-09T10:16:33.122Z,20.9
2019-05-09T10:17:17.411Z,20.9
2019-05-09T10:18:57.690Z,20.9
2019-05-09T10:19:59.589Z,20.9
2019-05-09T10:20:38.231Z,20.9
2019-05-09T10:21:27.486Z,20.9
2019-05-09T10:22:21.959Z,20.9
2019-05-09T10:23:21.914Z,20.9
2019-05-09T10:23:57.984Z,20.9
2019-05-09T10:24:47.801Z,20.9
2019-05-09T10:25:37.994Z,20.9
2019-05-09T10:26:28.054Z,20.9
2019-05-09T10:27:18.934Z,20.9
2019-05-09T10:28:05.831Z,20.9
2019-05-09T10:28:55.611Z,20.9
2019-05-09T10:29:48.477Z,20.9
2019-05-09T10:30:38.648Z,20.9
2019-05-09T10:31:28.721Z,20.9
2019-05-09T10:32:18.625Z,20.9
2019-05-09T10:33:08.835Z,20.9
2019-05-09T10:33:58.449Z,20.9
2019-05-09T10:34:49.212Z,20.9
2019-05-09T10:35:38.843Z,20.9
2019-05-09T10:37:18.964Z,20.9
2019-05-09T10:38:59.366Z,20.9
2019-05-09T10:39:49.435Z,20.9
2019-05-09T10:40:41.069Z,20.9
2019-05-09T10:41:26.793Z,20.9
2019-05-09T10:42:19.076Z,20.9
2019-05-09T10:43:09.215Z,20.9
2019-05-09T10:43:58.916Z,20.9
2019-05-09T10:44:48.323Z,20.9
2019-05-09T10:45:41.653Z,20.9
2019-05-09T10:47:01.566Z,20.9
2019-05-09T10:48:31.211Z,20.9
2019-05-09T10:49:21.261Z,20.9
2019-05-09T10:50:10.775Z,20.9
2019-05-09T10:51:10.728Z,20.9
2019-05-09T10:51:51.640Z,20.9
2019-05-09T10:52:41.503Z,20.9
2019-05-09T10:53:31.284Z,20.9
2019-05-09T10:54:21.627Z,20.9
2019-05-09T10:55:11.692Z,20.9
2019-05-09T10:56:01.460Z,20.9
2019-05-09T10:56:51.802Z,20.9
2019-05-09T10:57:44.162Z,20.9
2019-05-09T10:58:31.655Z,20.9
2019-05-09T10:59:21.990Z,20.9
2019-05-09T11:00:12.044Z,20.9
2019-05-09T11:01:02.157Z,20.9
2019-05-09T12:05:34.135Z,20.8
2019-05-09T12:06:24.154Z,20.9
2019-05-09T12:07:14.222Z,20.9
2019-05-09T12:08:04.559Z,20.9
2019-05-09T12:08:54.062Z,20.9
2019-05-09T12:09:44.400Z,20.9
2019-05-09T12:10:34.450Z,20.9
2019-05-09T12:11:24.634Z,20.9
2019-05-09T12:12:14.308Z,20.9
2019-05-09T12:13:04.626Z,20.9
2019-05-09T12:13:54.158Z,20.9
2019-05-09T12:14:44.766Z,20.9
2019-05-09T12:15:34.857Z,20.9
2019-05-09T12:16:24.594Z,20.9
2019-05-09T12:17:14.677Z,20.9
2019-05-09T12:18:12.278Z,20.9
2019-05-09T12:18:54.765Z,20.9
2019-05-09T12:19:44.555Z,20.9
2019-05-09T12:20:34.901Z,20.9
2019-05-09T12:21:25.222Z,20.9
2019-05-09T12:22:15.331Z,20.9
2019-05-09T12:23:07.758Z,20.9
2019-05-09T12:23:55.407Z,20.9
2019-05-09T12:24:47.879Z,20.9
2019-05-09T12:25:35.572Z,20.9
2019-05-09T12:26:25.311Z,20.9
2019-05-09T12:27:15.411Z,20.9
2019-05-09T12:28:08.086Z,20.9
2019-05-09T12:28:58.317Z,20.9
2019-05-09T12:29:48.131Z,20.9
2019-05-09T12:30:38.470Z,20.9
2019-05-09T12:31:28.493Z,20.9
2019-05-09T12:32:18.405Z,20.9
2019-05-09T12:33:08.306Z,20.9
2019-05-09T12:33:58.815Z,20.9
2019-05-09T12:34:48.422Z,20.9
2019-05-09T12:35:39.453Z,20.9
2019-05-09T12:36:29.590Z,20.9
2019-05-09T12:37:18.748Z,20.9
2019-05-09T12:38:08.874Z,20.9
2019-05-09T12:38:59.575Z,20.9
2019-05-09T12:39:48.956Z,20.9
2019-05-09T12:40:39.316Z,20.9
2019-05-09T12:41:32.530Z,20.9
2019-05-09T12:42:19.622Z,20.9
2019-05-09T12:43:09.560Z,20.9
2019-05-09T12:43:58.640Z,20.9
2019-05-09T12:44:49.813Z,20.8
2019-05-09T12:45:39.361Z,20.8
2019-05-09T12:46:29.346Z,20.8
2019-05-09T12:47:20.006Z,20.8
2019-05-09T12:48:19.202Z,20.9
2019-05-09T12:49:00.112Z,20.9
2019-05-09T12:49:49.732Z,20.9
2019-05-09T12:50:39.767Z,20.9
2019-05-09T12:51:29.277Z,20.8
2019-05-09T12:52:19.634Z,20.8
2019-05-09T12:53:07.529Z,20.8
2019-05-09T12:53:58.761Z,20.9
2019-05-09T12:54:49.431Z,20.9
2019-05-09T12:55:39.499Z,20.8
2019-05-09T12:56:29.471Z,20.8
2019-05-09T12:57:20.507Z,20.8
2019-05-09T12:58:10.497Z,20.9
2019-05-09T12:58:58.964Z,20.8
2019-05-09T12:59:53.678Z,20.8
2019-05-09T13:00:39.464Z,20.8
2019-05-09T13:01:28.152Z,20.8
2019-05-09T13:02:18.906Z,20.8
2019-05-09T13:03:09.723Z,20.8
2019-05-09T13:03:59.398Z,20.8
2019-05-09T13:04:48.746Z,20.8
2019-05-09T13:05:40.015Z,20.8
2019-05-09T13:06:30.695Z,20.8
2019-05-09T13:07:18.732Z,20.8
2019-05-09T13:08:11.481Z,20.8
2019-05-09T13:08:59.756Z,20.8
2019-05-09T13:09:53.839Z,20.8
2019-05-09T13:10:38.909Z,20.8
2019-05-09T13:11:28.920Z,20.8
2019-05-09T13:12:19.196Z,20.8
2019-05-09T13:13:09.965Z,20.8
2019-05-09T13:13:59.041Z,20.8
2019-05-09T13:14:49.688Z,20.8
2019-05-09T13:15:39.230Z,20.8
2019-05-09T13:16:53.610Z,20.8
2019-05-09T13:18:29.531Z,20.8
2019-05-09T13:19:49.472Z,20.8
2019-05-09T13:20:39.538Z,20.8
2019-05-09T13:21:33.845Z,20.8
2019-05-09T13:22:19.678Z,20.8
2019-05-09T13:23:10.058Z,20.8
2019-05-09T13:24:00.065Z,20.8
2019-05-09T13:24:49.835Z,20.8
2019-05-09T13:25:39.641Z,20.8
2019-05-09T13:26:30.168Z,20.8
2019-05-09T13:27:20.122Z,20.8
2019-05-09T13:28:10.067Z,20.8
2019-05-09T13:29:00.155Z,20.8
2019-05-09T13:29:50.442Z,20.8
2019-05-09T13:30:40.283Z,20.8
2019-05-09T13:31:30.514Z,20.8
2019-05-09T13:32:20.142Z,20.8
2019-05-09T13:33:11.747Z,20.8
2019-05-09T13:34:00.500Z,20.8
2019-05-09T13:34:50.562Z,20.8
2019-05-09T13:35:41.739Z,20.8
2019-05-09T13:36:30.687Z,20.8
2019-05-09T13:37:20.803Z,20.8
2019-05-09T13:38:10.801Z,20.8
2019-05-09T13:39:09.411Z,20.8
2019-05-09T13:39:50.937Z,20.8
2019-05-09T13:40:41.088Z,20.8
2019-05-09T13:41:31.051Z,20.8
2019-05-09T13:42:20.855Z,20.8
2019-05-09T13:43:10.921Z,20.8
2019-05-09T13:44:14.229Z,20.8
2019-05-09T13:45:41.356Z,20.8
2019-05-09T13:46:31.474Z,20.8
2019-05-09T13:47:21.503Z,20.8
2019-05-09T13:48:56.957Z,20.8
2019-05-09T13:50:18.152Z,20.8
2019-05-09T13:51:08.426Z,20.8
2019-05-09T13:52:05.805Z,20.8
2019-05-09T13:52:48.936Z,20.8
2019-05-09T13:53:39.159Z,20.8
2019-05-09T13:54:29.485Z,20.8
2019-05-09T13:55:18.901Z,20.8
2019-05-09T13:56:09.511Z,20.8
2019-05-09T13:57:02.202Z,20.8
2019-05-09T13:57:49.471Z,20.8
2019-05-09T13:58:39.460Z,20.8
2019-05-09T13:59:30.898Z,20.8
2019-05-09T14:00:19.627Z,20.8
2019-05-09T14:01:08.823Z,20.8
2019-05-09T14:02:00.090Z,20.8
2019-05-09T14:02:50.031Z,20.8
2019-05-09T14:03:39.708Z,20.8
2019-05-09T14:04:29.747Z,20.8
2019-05-09T14:06:33.730Z,20.8
2019-05-09T14:07:24.078Z,20.8
2019-05-09T14:08:14.200Z,20.8
2019-05-09T14:09:04.205Z,20.8
2019-05-09T14:09:54.245Z,20.8
2019-05-09T14:10:44.302Z,20.8
2019-05-09T14:11:34.371Z,20.8
2019-05-09T14:12:24.420Z,20.8
2019-05-09T14:13:14.944Z,20.8
2019-05-09T14:14:04.550Z,20.8
2019-05-09T14:14:54.679Z,20.8
2019-05-09T14:15:45.340Z,20.8
2019-05-09T14:16:34.747Z,20.8
2019-05-09T14:17:54.082Z,20.8
2019-05-09T14:19:46.314Z,20.8
2019-05-09T14:20:49.231Z,20.8
2019-05-09T14:21:39.312Z,20.8
2019-05-09T14:22:28.839Z,20.8
2019-05-09T14:23:20.787Z,20.7
2019-05-09T14:24:19.727Z,20.8
2019-05-09T14:24:59.627Z,20.8
2019-05-09T14:25:52.745Z,20.8
2019-05-09T14:26:39.662Z,20.7
2019-05-09T14:27:30.307Z,20.8
2019-05-09T14:28:19.794Z,20.8
2019-05-09T14:29:14.280Z,20.8
2019-05-09T14:30:49.957Z,20.7
2019-05-09T14:31:40.028Z,20.7
2019-05-09T14:32:35.609Z,20.7
2019-05-09T14:33:20.131Z,20.7
2019-05-09T14:34:10.213Z,20.7
2019-05-09T14:35:00.285Z,20.7
2019-05-09T14:35:50.323Z,20.7
2019-05-09T14:36:49.851Z,20.7
2019-05-09T14:37:30.449Z,20.7
2019-05-09T14:38:20.239Z,20.7
2019-05-09T14:39:10.565Z,20.7
2019-05-09T14:40:09.994Z,20.7
2019-05-09T14:40:50.711Z,20.7
2019-05-09T14:41:40.763Z,20.7
2019-05-09T14:42:30.826Z,20.7
2019-05-09T14:43:20.586Z,20.7
2019-05-09T14:44:10.928Z,20.7
2019-05-09T14:45:00.998Z,20.7
2019-05-09T14:45:51.058Z,20.7
2019-05-09T14:46:41.180Z,20.7
2019-05-09T14:47:30.907Z,20.7
2019-05-09T14:48:21.238Z,20.7
2019-05-09T14:49:11.348Z,20.7
2019-05-09T14:50:01.374Z,20.7
2019-05-09T14:50:51.412Z,20.7
2019-05-09T14:51:41.193Z,20.6
2019-05-09T14:52:31.541Z,20.7
2019-05-09T14:53:21.595Z,20.6
2019-05-09T14:54:11.647Z,20.7
2019-05-09T14:55:01.763Z,20.7
2019-05-09T14:55:51.509Z,20.7
2019-05-09T14:56:43.407Z,20.7
2019-05-09T14:57:31.905Z,20.7
2019-05-09T14:58:21.957Z,20.6
2019-05-09T14:59:12.028Z,20.7
2019-05-09T15:00:01.828Z,20.6
2019-05-09T15:00:52.140Z,20.7
2019-05-09T15:01:44.718Z,20.6
2019-05-09T15:02:31.997Z,20.7
2019-05-09T15:03:22.325Z,20.7
2019-05-09T15:04:12.104Z,20.7
2019-05-09T15:05:04.102Z,20.6
2019-05-09T15:05:52.214Z,20.6
2019-05-09T15:06:42.296Z,20.6
2019-05-09T15:07:32.067Z,20.6
2019-05-09T15:08:22.425Z,20.6
2019-05-09T15:09:12.747Z,20.6
2019-05-09T15:10:03.062Z,20.6
2019-05-09T15:10:52.582Z,20.6
2019-05-09T15:11:42.960Z,20.6
2019-05-09T15:12:32.709Z,20.6
2019-05-09T15:13:23.039Z,20.6
2019-05-09T15:14:12.826Z,20.6
2019-05-09T15:15:03.307Z,20.6
2019-05-09T15:15:52.964Z,20.6
2019-05-09T15:16:43.287Z,20.6
2019-05-09T15:17:33.345Z,20.6
2019-05-09T15:18:23.414Z,20.6
2019-05-09T15:19:14.016Z,20.6
2019-05-09T15:20:03.257Z,20.6
2019-05-09T15:20:53.582Z,20.6
2019-05-09T15:21:43.649Z,20.6
2019-05-09T15:22:33.443Z,20.6
2019-05-09T15:23:23.792Z,20.6
2019-05-09T15:24:13.840Z,20.6
2019-05-09T15:25:03.951Z,20.6
2019-05-09T15:25:53.988Z,20.6
2019-05-09T15:26:43.461Z,20.6
2019-05-09T15:27:34.088Z,20.6